createdAt,value
2016-11-20T00:00:12.253Z,949.41
2016-11-20T00:01:12.610Z,949.42
2016-11-20T00:02:13.192Z,949.41
2016-11-20T00:03:12.678Z,949.39
2016-11-20T00:04:12.594Z,949.45
2016-11-20T00:05:12.625Z,949.41
2016-11-20T00:06:12.966Z,949.47
2016-11-20T00:07:12.489Z,949.47
2016-11-20T00:08:12.478Z,949.40
2016-11-20T00:09:13.024Z,949.42
2016-11-20T00:10:17.463Z,949.34
2016-11-20T00:11:12.543Z,949.32
2016-11-20T00:12:14.064Z,949.36
2016-11-20T00:13:11.052Z,949.35
2016-11-20T00:14:12.979Z,949.35
2016-11-20T00:15:12.180Z,949.34
2016-11-20T00:16:11.147Z,949.35
2016-11-20T00:17:14.969Z,949.31
2016-11-20T00:18:12.482Z,949.21
2016-11-20T00:19:12.625Z,949.20
2016-11-20T00:20:13.326Z,949.14
2016-11-20T00:21:12.634Z,949.13
2016-11-20T00:22:09.812Z,949.13
2016-11-20T00:23:13.587Z,949.12
2016-11-20T00:24:12.562Z,949.08
2016-11-20T00:25:13.091Z,949.06
2016-11-20T00:26:13.874Z,949.11
2016-11-20T00:27:12.058Z,949.04
2016-11-20T00:28:13.630Z,949.05
2016-11-20T00:29:13.145Z,949.12
2016-11-20T00:30:13.267Z,949.09
2016-11-20T00:31:12.272Z,949.03
2016-11-20T00:32:12.213Z,949.04
2016-11-20T00:33:12.875Z,949.05
2016-11-20T00:34:12.615Z,949.04
2016-11-20T00:35:14.173Z,949.03
2016-11-20T00:36:12.377Z,949.01
2016-11-20T00:37:12.893Z,948.97
2016-11-20T00:38:12.485Z,948.94
2016-11-20T00:39:12.887Z,948.93
2016-11-20T00:40:12.821Z,948.95
2016-11-20T00:41:12.490Z,948.91
2016-11-20T00:42:11.255Z,948.87
2016-11-20T00:43:12.284Z,948.85
2016-11-20T00:44:12.289Z,948.80
2016-11-20T00:45:12.251Z,948.78
2016-11-20T00:46:13.169Z,948.76
2016-11-20T00:47:12.900Z,948.78
2016-11-20T00:48:12.590Z,948.76
2016-11-20T00:49:13.212Z,948.82
2016-11-20T00:50:12.750Z,948.84
2016-11-20T00:51:11.845Z,948.81
2016-11-20T00:52:11.834Z,948.80
2016-11-20T00:53:12.443Z,948.81
2016-11-20T00:54:12.997Z,948.81
2016-11-20T00:55:12.653Z,948.85
2016-11-20T00:56:12.659Z,948.83
2016-11-20T00:57:11.698Z,948.90
2016-11-20T00:58:11.733Z,948.91
2016-11-20T00:59:12.809Z,948.92
2016-11-20T01:00:12.769Z,948.94
2016-11-20T01:01:14.534Z,948.91
2016-11-20T01:02:13.806Z,948.90
2016-11-20T01:03:11.760Z,948.81
2016-11-20T01:04:15.492Z,948.82
2016-11-20T01:05:13.535Z,948.81
2016-11-20T01:06:12.532Z,948.82
2016-11-20T01:07:14.134Z,948.84
2016-11-20T01:08:14.154Z,948.85
2016-11-20T01:09:14.043Z,948.90
2016-11-20T01:10:12.471Z,948.90
2016-11-20T01:11:12.512Z,948.91
2016-11-20T01:12:15.064Z,948.87
2016-11-20T01:13:13.848Z,948.91
2016-11-20T01:14:13.763Z,948.92
2016-11-20T01:15:13.152Z,948.95
2016-11-20T01:16:17.922Z,948.90
2016-11-20T01:17:20.242Z,948.93
2016-11-20T01:18:14.350Z,948.88
2016-11-20T01:19:15.176Z,948.87
2016-11-20T01:20:12.133Z,948.87
2016-11-20T01:21:13.704Z,948.83
2016-11-20T01:22:14.852Z,948.80
2016-11-20T01:23:14.664Z,948.75
2016-11-20T01:24:13.572Z,948.73
2016-11-20T01:25:15.152Z,948.71
2016-11-20T01:26:12.412Z,948.71
2016-11-20T01:27:12.412Z,948.71
2016-11-20T01:28:13.859Z,948.71
2016-11-20T01:29:12.440Z,948.69
2016-11-20T01:30:13.005Z,948.64
2016-11-20T01:31:19.194Z,948.59
2016-11-20T01:32:12.835Z,948.56
2016-11-20T01:33:12.987Z,948.53
2016-11-20T01:34:13.329Z,948.53
2016-11-20T01:35:13.321Z,948.52
2016-11-20T01:36:13.445Z,948.47
2016-11-20T01:37:12.939Z,948.48
2016-11-20T01:38:12.025Z,948.48
2016-11-20T01:39:12.156Z,948.46
2016-11-20T01:40:12.828Z,948.44
2016-11-20T01:41:12.582Z,948.43
2016-11-20T01:42:13.200Z,948.40
2016-11-20T01:43:13.561Z,948.42
2016-11-20T01:44:14.130Z,948.42
2016-11-20T01:45:12.881Z,948.38
2016-11-20T01:46:13.659Z,948.38
2016-11-20T01:47:12.526Z,948.32
2016-11-20T01:48:12.791Z,948.35
2016-11-20T01:49:12.328Z,948.34
2016-11-20T01:50:12.415Z,948.38
2016-11-20T01:51:12.523Z,948.38
2016-11-20T01:52:13.392Z,948.39
2016-11-20T01:53:18.032Z,948.41
2016-11-20T01:54:12.737Z,948.40
2016-11-20T01:55:13.532Z,948.37
2016-11-20T01:56:12.840Z,948.33
2016-11-20T01:57:12.287Z,948.33
2016-11-20T01:58:12.844Z,948.36
2016-11-20T01:59:12.470Z,948.34
2016-11-20T02:00:19.613Z,948.27
2016-11-20T02:01:14.406Z,948.31
2016-11-20T02:02:13.097Z,948.32
2016-11-20T02:03:12.664Z,948.31
2016-11-20T02:04:13.503Z,948.30
2016-11-20T02:05:14.185Z,948.28
2016-11-20T02:06:13.421Z,948.22
2016-11-20T02:07:12.958Z,948.15
2016-11-20T02:08:12.764Z,948.09
2016-11-20T02:09:10.749Z,948.12
2016-11-20T02:10:12.576Z,948.09
2016-11-20T02:11:12.588Z,948.12
2016-11-20T02:12:14.242Z,948.10
2016-11-20T02:13:13.804Z,948.06
2016-11-20T02:14:11.046Z,948.07
2016-11-20T02:15:12.515Z,948.06
2016-11-20T02:16:12.908Z,948.03
2016-11-20T02:17:13.780Z,948.04
2016-11-20T02:18:12.226Z,948.00
2016-11-20T02:19:12.203Z,948.02
2016-11-20T02:20:12.631Z,947.99
2016-11-20T02:21:12.688Z,948.02
2016-11-20T02:22:13.354Z,948.02
2016-11-20T02:23:11.030Z,948.01
2016-11-20T02:24:12.502Z,948.06
2016-11-20T02:25:12.438Z,948.07
2016-11-20T02:26:12.967Z,948.02
2016-11-20T02:27:12.537Z,948.02
2016-11-20T02:28:17.967Z,948.04
2016-11-20T02:29:12.618Z,947.99
2016-11-20T02:30:13.508Z,947.99
2016-11-20T02:31:13.672Z,948.04
2016-11-20T02:32:13.239Z,948.05
2016-11-20T02:33:12.938Z,948.03
2016-11-20T02:34:13.500Z,947.99
2016-11-20T02:35:13.673Z,948.04
2016-11-20T02:36:13.907Z,948.03
2016-11-20T02:37:12.647Z,947.99
2016-11-20T02:38:15.376Z,947.97
2016-11-20T02:39:14.223Z,948.01
2016-11-20T02:40:13.836Z,947.93
2016-11-20T02:41:12.577Z,947.87
2016-11-20T02:42:14.119Z,947.89
2016-11-20T02:43:12.296Z,947.84
2016-11-20T02:44:12.476Z,947.85
2016-11-20T02:45:12.453Z,947.89
2016-11-20T02:46:13.576Z,947.86
2016-11-20T02:47:14.376Z,947.85
2016-11-20T02:48:11.176Z,947.83
2016-11-20T02:49:12.615Z,947.84
2016-11-20T02:50:13.124Z,947.82
2016-11-20T02:51:12.288Z,947.88
2016-11-20T02:52:12.335Z,947.86
2016-11-20T02:53:12.760Z,947.86
2016-11-20T02:54:10.935Z,947.81
2016-11-20T02:55:12.062Z,947.87
2016-11-20T02:56:10.991Z,947.82
2016-11-20T02:57:10.873Z,947.84
2016-11-20T02:58:12.199Z,947.83
2016-11-20T02:59:12.916Z,947.83
2016-11-20T03:00:13.130Z,947.82
2016-11-20T03:01:12.755Z,947.82
2016-11-20T03:02:12.517Z,947.79
2016-11-20T03:03:15.333Z,947.72
2016-11-20T03:04:12.561Z,947.72
2016-11-20T03:05:12.539Z,947.72
2016-11-20T03:06:12.554Z,947.63
2016-11-20T03:07:13.674Z,947.59
2016-11-20T03:08:13.317Z,947.53
2016-11-20T03:09:11.386Z,947.58
2016-11-20T03:10:14.997Z,947.57
2016-11-20T03:11:11.181Z,947.57
2016-11-20T03:12:12.397Z,947.58
2016-11-20T03:13:12.331Z,947.51
2016-11-20T03:14:12.378Z,947.48
2016-11-20T03:15:14.711Z,947.43
2016-11-20T03:16:11.771Z,947.36
2016-11-20T03:17:14.647Z,947.36
2016-11-20T03:18:12.715Z,947.33
2016-11-20T03:19:13.047Z,947.31
2016-11-20T03:20:13.029Z,947.30
2016-11-20T03:21:12.998Z,947.27
2016-11-20T03:22:12.812Z,947.26
2016-11-20T03:23:14.142Z,947.20
2016-11-20T03:24:12.544Z,947.24
2016-11-20T03:25:12.555Z,947.18
2016-11-20T03:26:13.235Z,947.17
2016-11-20T03:27:12.326Z,947.17
2016-11-20T03:28:13.197Z,947.12
2016-11-20T03:29:11.828Z,947.09
2016-11-20T03:30:12.627Z,947.06
2016-11-20T03:31:13.353Z,946.99
2016-11-20T03:32:13.798Z,947.03
2016-11-20T03:33:11.884Z,947.04
2016-11-20T03:34:13.532Z,947.07
2016-11-20T03:35:12.478Z,947.00
2016-11-20T03:36:13.323Z,947.01
2016-11-20T03:37:12.386Z,947.03
2016-11-20T03:38:11.236Z,947.10
2016-11-20T03:39:13.835Z,947.07
2016-11-20T03:40:12.045Z,947.05
2016-11-20T03:41:12.131Z,947.01
2016-11-20T03:42:12.932Z,947.04
2016-11-20T03:43:13.024Z,947.00
2016-11-20T03:44:12.782Z,946.97
2016-11-20T03:45:10.202Z,947.02
2016-11-20T03:46:14.479Z,947.03
2016-11-20T03:47:12.587Z,946.99
2016-11-20T03:48:13.439Z,946.97
2016-11-20T03:49:13.133Z,946.97
2016-11-20T03:50:12.674Z,946.98
2016-11-20T03:51:13.507Z,947.02
2016-11-20T03:52:13.575Z,947.02
2016-11-20T03:53:13.199Z,947.03
2016-11-20T03:54:12.897Z,946.97
2016-11-20T03:55:12.668Z,946.97
2016-11-20T03:56:12.945Z,946.99
2016-11-20T03:57:12.795Z,946.99
2016-11-20T03:58:13.321Z,946.94
2016-11-20T03:59:13.347Z,946.99
2016-11-20T04:00:11.308Z,946.95
2016-11-20T04:01:12.228Z,946.92
2016-11-20T04:02:12.739Z,946.88
2016-11-20T04:03:12.393Z,946.85
2016-11-20T04:04:13.083Z,946.88
2016-11-20T04:05:12.066Z,946.89
2016-11-20T04:06:12.075Z,946.87
2016-11-20T04:07:12.456Z,946.90
2016-11-20T04:08:12.404Z,946.91
2016-11-20T04:09:13.072Z,946.88
2016-11-20T04:10:12.227Z,946.85
2016-11-20T04:11:12.201Z,946.81
2016-11-20T04:12:12.426Z,946.84
2016-11-20T04:13:11.729Z,946.82
2016-11-20T04:14:12.267Z,946.78
2016-11-20T04:15:12.874Z,946.73
2016-11-20T04:16:13.303Z,946.73
2016-11-20T04:17:12.384Z,946.70
2016-11-20T04:18:14.374Z,946.70
2016-11-20T04:19:13.544Z,946.66
2016-11-20T04:20:13.346Z,946.63
2016-11-20T04:21:13.150Z,946.62
2016-11-20T04:22:12.352Z,946.54
2016-11-20T04:23:12.466Z,946.50
2016-11-20T04:24:13.486Z,946.51
2016-11-20T04:25:12.535Z,946.49
2016-11-20T04:26:13.056Z,946.49
2016-11-20T04:27:12.445Z,946.42
2016-11-20T04:28:12.803Z,946.45
2016-11-20T04:29:11.923Z,946.45
2016-11-20T04:30:20.497Z,946.44
2016-11-20T04:31:13.048Z,946.39
2016-11-20T04:32:12.188Z,946.39
2016-11-20T04:33:10.846Z,946.38
2016-11-20T04:34:12.106Z,946.38
2016-11-20T04:35:12.147Z,946.35
2016-11-20T04:36:12.370Z,946.37
2016-11-20T04:37:12.327Z,946.34
2016-11-20T04:38:13.197Z,946.35
2016-11-20T04:39:14.026Z,946.37
2016-11-20T04:40:12.249Z,946.36
2016-11-20T04:41:12.263Z,946.35
2016-11-20T04:42:13.128Z,946.31
2016-11-20T04:43:12.663Z,946.34
2016-11-20T04:44:13.154Z,946.31
2016-11-20T04:45:12.295Z,946.31
2016-11-20T04:46:12.365Z,946.34
2016-11-20T04:47:13.218Z,946.35
2016-11-20T04:48:10.906Z,946.35
2016-11-20T04:49:11.902Z,946.35
2016-11-20T04:50:11.959Z,946.30
2016-11-20T04:51:11.011Z,946.32
2016-11-20T04:52:12.152Z,946.31
2016-11-20T04:53:10.819Z,946.30
2016-11-20T04:54:13.077Z,946.30
2016-11-20T04:55:12.259Z,946.28
2016-11-20T04:56:19.711Z,946.25
2016-11-20T04:57:12.028Z,946.30
2016-11-20T04:58:18.209Z,946.30
2016-11-20T04:59:18.399Z,946.32
2016-11-20T05:00:13.064Z,946.31
2016-11-20T05:01:12.204Z,946.25
2016-11-20T05:02:13.939Z,946.30
2016-11-20T05:03:12.890Z,946.30
2016-11-20T05:04:12.476Z,946.36
2016-11-20T05:05:12.519Z,946.36
2016-11-20T05:06:13.022Z,946.33
2016-11-20T05:07:12.025Z,946.42
2016-11-20T05:08:11.953Z,946.38
2016-11-20T05:09:12.535Z,946.43
2016-11-20T05:10:12.462Z,946.33
2016-11-20T05:11:12.457Z,946.31
2016-11-20T05:12:12.591Z,946.33
2016-11-20T05:13:13.185Z,946.35
2016-11-20T05:14:14.443Z,946.34
2016-11-20T05:15:12.921Z,946.30
2016-11-20T05:16:12.511Z,946.29
2016-11-20T05:17:16.247Z,946.26
2016-11-20T05:18:12.846Z,946.26
2016-11-20T05:19:12.502Z,946.26
2016-11-20T05:20:13.141Z,946.27
2016-11-20T05:21:13.593Z,946.22
2016-11-20T05:22:12.957Z,946.21
2016-11-20T05:23:14.721Z,946.26
2016-11-20T05:24:11.911Z,946.24
2016-11-20T05:25:16.936Z,946.26
2016-11-20T05:26:13.471Z,946.30
2016-11-20T05:27:12.459Z,946.30
2016-11-20T05:28:12.287Z,946.28
2016-11-20T05:29:14.550Z,946.24
2016-11-20T05:30:12.438Z,946.25
2016-11-20T05:31:13.033Z,946.23
2016-11-20T05:32:13.644Z,946.23
2016-11-20T05:33:13.115Z,946.22
2016-11-20T05:34:12.625Z,946.24
2016-11-20T05:35:13.711Z,946.27
2016-11-20T05:36:13.480Z,946.26
2016-11-20T05:37:13.029Z,946.23
2016-11-20T05:38:12.635Z,946.22
2016-11-20T05:39:13.552Z,946.17
2016-11-20T05:40:14.177Z,946.18
2016-11-20T05:41:09.410Z,946.14
2016-11-20T05:42:13.060Z,946.12
2016-11-20T05:43:13.157Z,946.12
2016-11-20T05:44:12.530Z,946.10
2016-11-20T05:45:14.181Z,946.11
2016-11-20T05:46:13.147Z,946.06
2016-11-20T05:47:13.098Z,946.01
2016-11-20T05:48:12.707Z,945.98
2016-11-20T05:49:13.309Z,945.95
2016-11-20T05:50:12.248Z,945.98
2016-11-20T05:51:12.946Z,946.01
2016-11-20T05:52:12.676Z,946.03
2016-11-20T05:53:12.533Z,946.00
2016-11-20T05:54:13.394Z,945.98
2016-11-20T05:55:10.598Z,945.94
2016-11-20T05:56:11.760Z,945.83
2016-11-20T05:57:10.839Z,945.79
2016-11-20T05:58:10.996Z,945.78
2016-11-20T05:59:13.411Z,945.80
2016-11-20T06:00:13.056Z,945.84
2016-11-20T06:01:12.848Z,945.85
2016-11-20T06:02:11.868Z,945.93
2016-11-20T06:03:10.828Z,945.89
2016-11-20T06:04:12.757Z,945.91
2016-11-20T06:05:11.837Z,945.91
2016-11-20T06:06:12.541Z,945.88
2016-11-20T06:07:13.088Z,945.84
2016-11-20T06:08:13.338Z,945.87
2016-11-20T06:09:12.989Z,945.86
2016-11-20T06:10:12.748Z,945.87
2016-11-20T06:11:12.387Z,945.83
2016-11-20T06:12:12.394Z,945.83
2016-11-20T06:13:12.372Z,945.83
2016-11-20T06:14:12.126Z,945.76
2016-11-20T06:15:11.086Z,945.86
2016-11-20T06:16:12.685Z,945.83
2016-11-20T06:17:14.579Z,945.92
2016-11-20T06:18:10.106Z,945.88
2016-11-20T06:19:12.791Z,945.90
2016-11-20T06:20:11.858Z,945.83
2016-11-20T06:21:11.971Z,945.82
2016-11-20T06:22:11.966Z,945.86
2016-11-20T06:23:12.683Z,945.79
2016-11-20T06:24:12.552Z,945.80
2016-11-20T06:25:12.491Z,945.77
2016-11-20T06:26:12.836Z,945.86
2016-11-20T06:27:11.957Z,945.85
2016-11-20T06:28:12.104Z,945.89
2016-11-20T06:29:12.114Z,945.88
2016-11-20T06:30:12.693Z,945.87
2016-11-20T06:31:13.028Z,945.81
2016-11-20T06:32:12.069Z,945.82
2016-11-20T06:33:13.832Z,945.80
2016-11-20T06:34:11.792Z,945.77
2016-11-20T06:35:10.812Z,945.74
2016-11-20T06:36:12.513Z,945.72
2016-11-20T06:37:12.573Z,945.74
2016-11-20T06:38:13.143Z,945.72
2016-11-20T06:39:12.911Z,945.71
2016-11-20T06:40:11.911Z,945.73
2016-11-20T06:41:12.083Z,945.76
2016-11-20T06:42:12.111Z,945.80
2016-11-20T06:43:12.837Z,945.77
2016-11-20T06:44:12.756Z,945.81
2016-11-20T06:45:12.131Z,945.81
2016-11-20T06:46:12.131Z,945.73
2016-11-20T06:47:12.261Z,945.74
2016-11-20T06:48:12.853Z,945.73
2016-11-20T06:49:12.692Z,945.74
2016-11-20T06:50:12.679Z,945.76
2016-11-20T06:51:18.208Z,945.77
2016-11-20T06:52:12.817Z,945.81
2016-11-20T06:53:12.468Z,945.87
2016-11-20T06:54:12.639Z,945.84
2016-11-20T06:55:13.433Z,945.82
2016-11-20T06:56:12.219Z,945.85
2016-11-20T06:57:13.866Z,945.88
2016-11-20T06:58:11.963Z,945.87
2016-11-20T06:59:12.951Z,945.86
2016-11-20T07:00:12.863Z,945.82
2016-11-20T07:01:12.432Z,945.87
2016-11-20T07:02:14.051Z,945.87
2016-11-20T07:03:12.628Z,945.86
2016-11-20T07:04:12.745Z,945.86
2016-11-20T07:05:13.653Z,945.85
2016-11-20T07:06:13.480Z,945.84
2016-11-20T07:07:13.252Z,945.83
2016-11-20T07:08:11.019Z,945.83
2016-11-20T07:09:12.803Z,945.90
2016-11-20T07:10:12.542Z,945.95
2016-11-20T07:11:13.243Z,945.92
2016-11-20T07:12:14.807Z,945.89
2016-11-20T07:13:12.384Z,945.91
2016-11-20T07:14:12.443Z,945.92
2016-11-20T07:15:12.893Z,945.93
2016-11-20T07:16:11.749Z,945.89
2016-11-20T07:17:12.222Z,945.91
2016-11-20T07:18:12.043Z,945.86
2016-11-20T07:19:12.225Z,945.88
2016-11-20T07:20:12.179Z,945.94
2016-11-20T07:21:12.846Z,945.94
2016-11-20T07:22:11.893Z,945.94
2016-11-20T07:23:13.077Z,945.94
2016-11-20T07:24:13.041Z,945.91
2016-11-20T07:25:13.482Z,945.90
2016-11-20T07:26:12.495Z,945.89
2016-11-20T07:27:14.483Z,945.84
2016-11-20T07:28:12.431Z,945.87
2016-11-20T07:29:13.106Z,945.86
2016-11-20T07:30:12.853Z,945.76
2016-11-20T07:31:12.793Z,945.77
2016-11-20T07:32:11.818Z,945.73
2016-11-20T07:33:13.470Z,945.78
2016-11-20T07:34:13.863Z,945.80
2016-11-20T07:35:12.471Z,945.79
2016-11-20T07:36:14.014Z,945.86
2016-11-20T07:37:12.234Z,945.85
2016-11-20T07:38:13.094Z,945.80
2016-11-20T07:39:12.726Z,945.81
2016-11-20T07:40:12.578Z,945.78
2016-11-20T07:41:12.575Z,945.76
2016-11-20T07:42:12.584Z,945.81
2016-11-20T07:43:13.060Z,945.79
2016-11-20T07:44:12.104Z,945.76
2016-11-20T07:45:14.786Z,945.69
2016-11-20T07:46:10.731Z,945.74
2016-11-20T07:47:09.969Z,945.76
2016-11-20T07:48:12.211Z,945.73
2016-11-20T07:49:13.122Z,945.71
2016-11-20T07:50:12.106Z,945.76
2016-11-20T07:51:10.372Z,945.78
2016-11-20T07:52:12.448Z,945.82
2016-11-20T07:53:13.175Z,945.83
2016-11-20T07:54:12.139Z,945.84
2016-11-20T07:55:12.160Z,945.85
2016-11-20T07:56:12.318Z,945.84
2016-11-20T07:57:12.990Z,945.83
2016-11-20T07:58:12.573Z,945.76
2016-11-20T07:59:13.260Z,945.74
2016-11-20T08:00:12.109Z,945.74
2016-11-20T08:01:12.750Z,945.70
2016-11-20T08:02:11.710Z,945.77
2016-11-20T08:03:12.694Z,945.81
2016-11-20T08:04:13.576Z,945.82
2016-11-20T08:05:12.672Z,945.84
2016-11-20T08:06:13.077Z,945.82
2016-11-20T08:07:12.650Z,945.79
2016-11-20T08:08:12.806Z,945.75
2016-11-20T08:09:12.484Z,945.81
2016-11-20T08:10:12.697Z,945.80
2016-11-20T08:11:14.599Z,945.81
2016-11-20T08:12:12.553Z,945.83
2016-11-20T08:13:13.283Z,945.86
2016-11-20T08:14:13.967Z,945.89
2016-11-20T08:15:13.877Z,945.87
2016-11-20T08:16:12.883Z,945.88
2016-11-20T08:17:12.021Z,945.91
2016-11-20T08:18:18.336Z,945.93
2016-11-20T08:19:12.374Z,945.86
2016-11-20T08:20:13.264Z,945.82
2016-11-20T08:21:12.992Z,945.81
2016-11-20T08:22:12.364Z,945.87
2016-11-20T08:23:12.256Z,945.87
2016-11-20T08:24:12.402Z,945.84
2016-11-20T08:25:12.788Z,945.91
2016-11-20T08:26:12.291Z,945.90
2016-11-20T08:27:12.505Z,945.95
2016-11-20T08:28:18.558Z,945.97
2016-11-20T08:29:10.783Z,945.94
2016-11-20T08:30:10.723Z,945.93
2016-11-20T08:31:11.930Z,945.91
2016-11-20T08:32:12.195Z,946.00
2016-11-20T08:33:13.298Z,945.98
2016-11-20T08:34:13.021Z,945.97
2016-11-20T08:35:13.181Z,946.01
2016-11-20T08:36:12.270Z,945.97
2016-11-20T08:37:13.547Z,946.00
2016-11-20T08:38:12.624Z,946.06
2016-11-20T08:39:11.851Z,946.12
2016-11-20T08:40:12.399Z,946.09
2016-11-20T08:41:12.511Z,946.14
2016-11-20T08:42:13.156Z,946.12
2016-11-20T08:43:12.717Z,946.10
2016-11-20T08:44:11.678Z,946.12
2016-11-20T08:45:12.575Z,946.11
2016-11-20T08:46:12.576Z,946.11
2016-11-20T08:47:12.668Z,946.13
2016-11-20T08:48:13.020Z,946.18
2016-11-20T08:49:12.602Z,946.19
2016-11-20T08:50:10.690Z,946.21
2016-11-20T08:51:12.678Z,946.21
2016-11-20T08:52:12.426Z,946.21
2016-11-20T08:53:13.165Z,946.24
2016-11-20T08:54:10.336Z,946.23
2016-11-20T08:55:12.476Z,946.29
2016-11-20T08:56:12.451Z,946.27
2016-11-20T08:57:12.560Z,946.29
2016-11-20T08:58:11.824Z,946.26
2016-11-20T08:59:12.833Z,946.25
2016-11-20T09:00:11.824Z,946.25
2016-11-20T09:01:12.476Z,946.22
2016-11-20T09:02:13.110Z,946.22
2016-11-20T09:03:18.616Z,946.24
2016-11-20T09:04:12.454Z,946.25
2016-11-20T09:05:14.303Z,946.27
2016-11-20T09:06:12.128Z,946.27
2016-11-20T09:07:12.191Z,946.24
2016-11-20T09:08:14.078Z,946.24
2016-11-20T09:09:11.206Z,946.25
2016-11-20T09:10:12.739Z,946.29
2016-11-20T09:11:12.836Z,946.31
2016-11-20T09:12:14.114Z,946.34
2016-11-20T09:13:12.619Z,946.42
2016-11-20T09:14:14.289Z,946.44
2016-11-20T09:15:18.007Z,946.43
2016-11-20T09:16:11.985Z,946.41
2016-11-20T09:17:10.285Z,946.41
2016-11-20T09:18:18.398Z,946.40
2016-11-20T09:19:12.857Z,946.34
2016-11-20T09:20:12.534Z,946.35
2016-11-20T09:21:13.278Z,946.33
2016-11-20T09:22:12.250Z,946.32
2016-11-20T09:23:12.331Z,946.33
2016-11-20T09:24:09.550Z,946.35
2016-11-20T09:25:11.477Z,946.40
2016-11-20T09:26:13.306Z,946.40
2016-11-20T09:27:11.043Z,946.41
2016-11-20T09:28:12.069Z,946.44
2016-11-20T09:29:12.805Z,946.41
2016-11-20T09:30:14.038Z,946.39
2016-11-20T09:31:12.300Z,946.37
2016-11-20T09:32:12.247Z,946.38
2016-11-20T09:33:12.886Z,946.43
2016-11-20T09:34:12.659Z,946.46
2016-11-20T09:35:12.718Z,946.47
2016-11-20T09:36:12.840Z,946.41
2016-11-20T09:37:13.452Z,946.42
2016-11-20T09:38:12.718Z,946.43
2016-11-20T09:39:11.557Z,946.42
2016-11-20T09:40:12.543Z,946.43
2016-11-20T09:41:12.630Z,946.44
2016-11-20T09:42:13.097Z,946.42
2016-11-20T09:43:14.123Z,946.38
2016-11-20T09:44:12.871Z,946.37
2016-11-20T09:45:10.841Z,946.39
2016-11-20T09:46:12.616Z,946.32
2016-11-20T09:47:12.602Z,946.29
2016-11-20T09:48:15.025Z,946.24
2016-11-20T09:49:11.988Z,946.22
2016-11-20T09:50:14.409Z,946.19
2016-11-20T09:51:12.571Z,946.20
2016-11-20T09:52:12.947Z,946.18
2016-11-20T09:53:12.678Z,946.21
2016-11-20T09:54:13.268Z,946.23
2016-11-20T09:55:12.507Z,946.22
2016-11-20T09:56:12.583Z,946.20
2016-11-20T09:57:11.060Z,946.17
2016-11-20T09:58:13.249Z,946.15
2016-11-20T09:59:12.259Z,946.16
2016-11-20T10:00:12.244Z,946.16
2016-11-20T10:01:12.983Z,946.15
2016-11-20T10:02:12.173Z,946.20
2016-11-20T10:03:12.291Z,946.19
2016-11-20T10:04:12.788Z,946.22
2016-11-20T10:05:13.420Z,946.23
2016-11-20T10:06:13.055Z,946.28
2016-11-20T10:07:13.048Z,946.27
2016-11-20T10:08:12.258Z,946.29
2016-11-20T10:09:12.126Z,946.32
2016-11-20T10:10:13.430Z,946.36
2016-11-20T10:11:13.193Z,946.36
2016-11-20T10:12:13.226Z,946.35
2016-11-20T10:13:12.624Z,946.35
2016-11-20T10:14:11.810Z,946.37
2016-11-20T10:15:12.420Z,946.35
2016-11-20T10:16:12.470Z,946.35
2016-11-20T10:17:14.161Z,946.34
2016-11-20T10:18:12.359Z,946.34
2016-11-20T10:19:12.450Z,946.29
2016-11-20T10:20:12.466Z,946.29
2016-11-20T10:21:12.284Z,946.31
2016-11-20T10:22:15.223Z,946.28
2016-11-20T10:23:12.506Z,946.29
2016-11-20T10:24:13.282Z,946.25
2016-11-20T10:25:12.260Z,946.23
2016-11-20T10:26:14.142Z,946.22
2016-11-20T10:27:12.703Z,946.16
2016-11-20T10:28:12.620Z,946.17
2016-11-20T10:29:12.556Z,946.16
2016-11-20T10:30:13.225Z,946.19
2016-11-20T10:31:12.182Z,946.14
2016-11-20T10:32:14.040Z,946.19
2016-11-20T10:33:11.898Z,946.16
2016-11-20T10:34:11.982Z,946.16
2016-11-20T10:35:13.885Z,946.15
2016-11-20T10:36:12.619Z,946.13
2016-11-20T10:37:17.818Z,946.11
2016-11-20T10:38:10.966Z,946.09
2016-11-20T10:39:16.896Z,946.08
2016-11-20T10:40:12.596Z,946.08
2016-11-20T10:41:12.965Z,946.12
2016-11-20T10:42:11.994Z,946.16
2016-11-20T10:43:14.806Z,946.15
2016-11-20T10:44:13.079Z,946.10
2016-11-20T10:45:12.349Z,946.07
2016-11-20T10:46:12.379Z,946.02
2016-11-20T10:47:14.214Z,946.03
2016-11-20T10:48:13.335Z,946.05
2016-11-20T10:49:13.825Z,946.09
2016-11-20T10:50:12.320Z,946.07
2016-11-20T10:51:14.227Z,946.06
2016-11-20T10:52:12.320Z,946.05
2016-11-20T10:53:14.166Z,946.05
2016-11-20T10:54:12.600Z,946.06
2016-11-20T10:55:13.142Z,946.00
2016-11-20T10:56:12.694Z,946.00
2016-11-20T10:57:13.096Z,946.03
2016-11-20T10:58:12.197Z,946.03
2016-11-20T10:59:12.195Z,946.01
2016-11-20T11:00:12.803Z,946.04
2016-11-20T11:01:11.966Z,945.96
2016-11-20T11:02:12.100Z,945.99
2016-11-20T11:03:12.280Z,945.96
2016-11-20T11:04:10.977Z,945.96
2016-11-20T11:05:12.106Z,945.97
2016-11-20T11:06:12.070Z,946.03
2016-11-20T11:07:12.528Z,946.01
2016-11-20T11:08:13.242Z,946.01
2016-11-20T11:09:13.988Z,945.98
2016-11-20T11:10:10.993Z,945.98
2016-11-20T11:11:10.925Z,945.97
2016-11-20T11:12:12.726Z,946.01
2016-11-20T11:13:12.652Z,946.01
2016-11-20T11:14:12.528Z,945.98
2016-11-20T11:15:12.591Z,945.93
2016-11-20T11:16:12.430Z,945.91
2016-11-20T11:17:13.061Z,945.91
2016-11-20T11:18:12.129Z,945.88
2016-11-20T11:19:12.487Z,945.89
2016-11-20T11:20:13.161Z,945.89
2016-11-20T11:21:13.688Z,945.86
2016-11-20T11:22:12.600Z,945.87
2016-11-20T11:23:12.627Z,945.91
2016-11-20T11:24:13.328Z,945.89
2016-11-20T11:25:13.999Z,945.92
2016-11-20T11:26:09.950Z,945.92
2016-11-20T11:27:12.826Z,945.95
2016-11-20T11:28:11.946Z,945.88
2016-11-20T11:29:12.177Z,945.94
2016-11-20T11:30:12.863Z,945.92
2016-11-20T11:31:12.081Z,945.94
2016-11-20T11:32:12.713Z,945.92
2016-11-20T11:33:13.145Z,945.95
2016-11-20T11:34:12.780Z,945.92
2016-11-20T11:35:12.741Z,945.90
2016-11-20T11:36:13.937Z,945.81
2016-11-20T11:37:11.892Z,945.81
2016-11-20T11:38:12.172Z,945.81
2016-11-20T11:39:12.235Z,945.79
2016-11-20T11:40:12.272Z,945.74
2016-11-20T11:41:12.317Z,945.78
2016-11-20T11:42:12.829Z,945.76
2016-11-20T11:43:12.574Z,945.77
2016-11-20T11:44:13.156Z,945.75
2016-11-20T11:45:12.396Z,945.75
2016-11-20T11:46:12.876Z,945.71
2016-11-20T11:47:13.497Z,945.67
2016-11-20T11:48:13.175Z,945.76
2016-11-20T11:49:12.200Z,945.72
2016-11-20T11:50:13.043Z,945.74
2016-11-20T11:51:12.263Z,945.76
2016-11-20T11:52:11.059Z,945.73
2016-11-20T11:53:11.118Z,945.72
2016-11-20T11:54:12.606Z,945.68
2016-11-20T11:55:13.149Z,945.72
2016-11-20T11:56:12.837Z,945.72
2016-11-20T11:57:12.180Z,945.68
2016-11-20T11:58:13.045Z,945.64
2016-11-20T11:59:12.176Z,945.62
2016-11-20T12:00:14.410Z,945.57
2016-11-20T12:01:13.065Z,945.52
2016-11-20T12:02:11.126Z,945.54
2016-11-20T12:03:12.225Z,945.56
2016-11-20T12:04:14.023Z,945.54
2016-11-20T12:05:13.723Z,945.50
2016-11-20T12:06:12.728Z,945.58
2016-11-20T12:07:13.334Z,945.60
2016-11-20T12:08:12.742Z,945.62
2016-11-20T12:09:11.816Z,945.57
2016-11-20T12:10:12.072Z,945.54
2016-11-20T12:11:12.868Z,945.57
2016-11-20T12:12:12.049Z,945.55
2016-11-20T12:13:12.750Z,945.54
2016-11-20T12:14:11.769Z,945.57
2016-11-20T12:15:12.241Z,945.58
2016-11-20T12:16:13.101Z,945.58
2016-11-20T12:17:12.254Z,945.54
2016-11-20T12:18:12.969Z,945.55
2016-11-20T12:19:12.679Z,945.57
2016-11-20T12:20:13.865Z,945.55
2016-11-20T12:21:11.968Z,945.57
2016-11-20T12:22:19.371Z,945.54
2016-11-20T12:23:12.525Z,945.54
2016-11-20T12:24:13.671Z,945.51
2016-11-20T12:25:11.393Z,945.54
2016-11-20T12:26:12.731Z,945.54
2016-11-20T12:27:13.496Z,945.54
2016-11-20T12:28:12.664Z,945.54